sensor_id;sensor_type;location;lat;lon;timestamp;P1;durP1;ratioP1;P2;durP2;ratioP2
52742;SDS011;55583;53.012;6.556;2023-07-13T00:00:27;13.70;;;3.08;;
52742;SDS011;55583;53.012;6.556;2023-07-13T00:02:53;15.18;;;4.00;;
52742;SDS011;55583;53.012;6.556;2023-07-13T00:05:22;9.88;;;3.17;;
52742;SDS011;55583;53.012;6.556;2023-07-13T00:07:49;8.18;;;2.72;;
52742;SDS011;55583;53.012;6.556;2023-07-13T00:10:15;10.77;;;2.83;;
52742;SDS011;55583;53.012;6.556;2023-07-13T00:12:41;18.63;;;3.28;;
52742;SDS011;55583;53.012;6.556;2023-07-13T00:15:12;13.95;;;3.17;;
52742;SDS011;55583;53.012;6.556;2023-07-13T00:17:41;14.50;;;3.15;;
52742;SDS011;55583;53.012;6.556;2023-07-13T00:20:10;11.30;;;3.25;;
52742;SDS011;55583;53.012;6.556;2023-07-13T00:22:36;14.13;;;3.80;;
52742;SDS011;55583;53.012;6.556;2023-07-13T00:25:02;14.32;;;2.90;;
52742;SDS011;55583;53.012;6.556;2023-07-13T00:27:28;9.30;;;3.30;;
52742;SDS011;55583;53.012;6.556;2023-07-13T00:29:57;17.52;;;3.70;;
52742;SDS011;55583;53.012;6.556;2023-07-13T00:32:23;12.05;;;3.55;;
52742;SDS011;55583;53.012;6.556;2023-07-13T00:34:52;12.68;;;3.30;;
52742;SDS011;55583;53.012;6.556;2023-07-13T00:37:18;18.30;;;3.67;;
52742;SDS011;55583;53.012;6.556;2023-07-13T00:39:44;18.70;;;4.38;;
52742;SDS011;55583;53.012;6.556;2023-07-13T00:42:10;17.95;;;4.15;;
52742;SDS011;55583;53.012;6.556;2023-07-13T00:44:36;14.85;;;3.50;;
52742;SDS011;55583;53.012;6.556;2023-07-13T00:47:02;12.57;;;3.33;;
52742;SDS011;55583;53.012;6.556;2023-07-13T00:49:29;16.08;;;3.70;;
52742;SDS011;55583;53.012;6.556;2023-07-13T00:51:58;20.65;;;4.32;;
52742;SDS011;55583;53.012;6.556;2023-07-13T00:54:32;17.50;;;3.95;;
52742;SDS011;55583;53.012;6.556;2023-07-13T00:57:02;18.42;;;4.18;;
52742;SDS011;55583;53.012;6.556;2023-07-13T00:59:31;14.48;;;3.40;;
52742;SDS011;55583;53.012;6.556;2023-07-13T01:01:58;15.93;;;4.03;;
52742;SDS011;55583;53.012;6.556;2023-07-13T01:04:24;15.75;;;3.53;;
52742;SDS011;55583;53.012;6.556;2023-07-13T01:06:51;15.57;;;3.53;;
52742;SDS011;55583;53.012;6.556;2023-07-13T01:09:17;8.88;;;3.30;;
52742;SDS011;55583;53.012;6.556;2023-07-13T01:11:44;16.30;;;4.25;;
52742;SDS011;55583;53.012;6.556;2023-07-13T01:14:10;25.95;;;4.88;;
52742;SDS011;55583;53.012;6.556;2023-07-13T01:16:36;24.05;;;5.03;;
52742;SDS011;55583;53.012;6.556;2023-07-13T01:19:07;18.85;;;4.65;;
52742;SDS011;55583;53.012;6.556;2023-07-13T01:22:01;14.27;;;3.75;;
52742;SDS011;55583;53.012;6.556;2023-07-13T01:24:27;19.58;;;3.83;;
52742;SDS011;55583;53.012;6.556;2023-07-13T01:26:54;22.33;;;4.28;;
52742;SDS011;55583;53.012;6.556;2023-07-13T01:29:20;18.13;;;4.28;;
52742;SDS011;55583;53.012;6.556;2023-07-13T01:31:46;14.82;;;3.95;;
52742;SDS011;55583;53.012;6.556;2023-07-13T01:34:12;19.23;;;4.10;;
52742;SDS011;55583;53.012;6.556;2023-07-13T01:36:38;21.80;;;3.90;;
52742;SDS011;55583;53.012;6.556;2023-07-13T01:39:04;15.35;;;4.10;;
52742;SDS011;55583;53.012;6.556;2023-07-13T01:41:30;21.70;;;4.20;;
52742;SDS011;55583;53.012;6.556;2023-07-13T01:43:55;20.73;;;4.70;;
52742;SDS011;55583;53.012;6.556;2023-07-13T01:46:21;23.88;;;4.32;;
52742;SDS011;55583;53.012;6.556;2023-07-13T01:48:47;17.45;;;3.90;;
52742;SDS011;55583;53.012;6.556;2023-07-13T01:51:12;24.77;;;4.55;;
52742;SDS011;55583;53.012;6.556;2023-07-13T01:53:39;18.35;;;4.32;;
52742;SDS011;55583;53.012;6.556;2023-07-13T01:56:04;18.58;;;4.65;;
52742;SDS011;55583;53.012;6.556;2023-07-13T01:58:30;15.02;;;4.20;;
52742;SDS011;55583;53.012;6.556;2023-07-13T02:00:56;19.85;;;4.20;;
52742;SDS011;55583;53.012;6.556;2023-07-13T02:03:21;16.10;;;3.85;;
52742;SDS011;55583;53.012;6.556;2023-07-13T02:05:47;19.17;;;3.50;;
52742;SDS011;55583;53.012;6.556;2023-07-13T02:08:13;18.23;;;4.28;;
52742;SDS011;55583;53.012;6.556;2023-07-13T02:10:39;13.10;;;3.50;;
52742;SDS011;55583;53.012;6.556;2023-07-13T02:13:05;22.75;;;4.65;;
52742;SDS011;55583;53.012;6.556;2023-07-13T02:15:31;16.33;;;4.28;;
52742;SDS011;55583;53.012;6.556;2023-07-13T02:17:57;14.10;;;3.65;;
52742;SDS011;55583;53.012;6.556;2023-07-13T02:20:23;16.17;;;4.78;;
52742;SDS011;55583;53.012;6.556;2023-07-13T02:22:51;15.15;;;3.45;;
52742;SDS011;55583;53.012;6.556;2023-07-13T02:25:17;19.33;;;3.72;;
52742;SDS011;55583;53.012;6.556;2023-07-13T02:27:42;11.70;;;3.42;;
52742;SDS011;55583;53.012;6.556;2023-07-13T02:30:08;12.73;;;3.50;;
52742;SDS011;55583;53.012;6.556;2023-07-13T02:32:35;16.85;;;3.85;;
52742;SDS011;55583;53.012;6.556;2023-07-13T02:35:01;17.27;;;3.47;;
52742;SDS011;55583;53.012;6.556;2023-07-13T02:37:28;13.57;;;3.95;;
52742;SDS011;55583;53.012;6.556;2023-07-13T02:39:54;18.25;;;4.30;;
52742;SDS011;55583;53.012;6.556;2023-07-13T02:42:20;20.13;;;5.38;;
52742;SDS011;55583;53.012;6.556;2023-07-13T02:44:46;15.38;;;3.97;;
52742;SDS011;55583;53.012;6.556;2023-07-13T02:47:12;16.92;;;3.90;;
52742;SDS011;55583;53.012;6.556;2023-07-13T02:49:38;15.82;;;4.32;;
52742;SDS011;55583;53.012;6.556;2023-07-13T02:52:04;12.23;;;4.10;;
52742;SDS011;55583;53.012;6.556;2023-07-13T02:54:30;17.95;;;4.57;;
52742;SDS011;55583;53.012;6.556;2023-07-13T02:56:56;13.18;;;4.25;;
52742;SDS011;55583;53.012;6.556;2023-07-13T02:59:21;15.43;;;4.15;;
52742;SDS011;55583;53.012;6.556;2023-07-13T03:01:47;13.65;;;3.97;;
52742;SDS011;55583;53.012;6.556;2023-07-13T03:04:13;12.43;;;4.32;;
52742;SDS011;55583;53.012;6.556;2023-07-13T03:06:38;13.77;;;5.35;;
52742;SDS011;55583;53.012;6.556;2023-07-13T03:09:04;14.35;;;4.00;;
52742;SDS011;55583;53.012;6.556;2023-07-13T03:11:30;22.75;;;5.55;;
52742;SDS011;55583;53.012;6.556;2023-07-13T03:13:56;16.60;;;4.57;;
52742;SDS011;55583;53.012;6.556;2023-07-13T03:16:22;22.33;;;4.78;;
52742;SDS011;55583;53.012;6.556;2023-07-13T03:18:48;25.35;;;5.03;;
52742;SDS011;55583;53.012;6.556;2023-07-13T03:21:14;21.08;;;4.72;;
52742;SDS011;55583;53.012;6.556;2023-07-13T03:23:40;19.73;;;4.88;;
52742;SDS011;55583;53.012;6.556;2023-07-13T03:26:16;21.20;;;5.05;;
52742;SDS011;55583;53.012;6.556;2023-07-13T03:28:43;20.33;;;4.82;;
52742;SDS011;55583;53.012;6.556;2023-07-13T03:31:11;21.27;;;5.07;;
52742;SDS011;55583;53.012;6.556;2023-07-13T03:33:39;24.50;;;5.10;;
52742;SDS011;55583;53.012;6.556;2023-07-13T03:36:06;15.60;;;4.32;;
52742;SDS011;55583;53.012;6.556;2023-07-13T03:38:33;18.80;;;4.70;;
52742;SDS011;55583;53.012;6.556;2023-07-13T03:40:59;22.42;;;5.25;;
52742;SDS011;55583;53.012;6.556;2023-07-13T03:43:25;12.40;;;4.50;;
52742;SDS011;55583;53.012;6.556;2023-07-13T03:45:51;19.88;;;5.38;;
52742;SDS011;55583;53.012;6.556;2023-07-13T03:48:16;15.73;;;5.05;;
52742;SDS011;55583;53.012;6.556;2023-07-13T03:50:42;20.13;;;4.15;;
52742;SDS011;55583;53.012;6.556;2023-07-13T03:53:08;17.13;;;4.35;;
52742;SDS011;55583;53.012;6.556;2023-07-13T03:55:34;18.35;;;4.63;;
52742;SDS011;55583;53.012;6.556;2023-07-13T03:58:25;19.20;;;4.68;;
52742;SDS011;55583;53.012;6.556;2023-07-13T04:03:20;19.67;;;4.13;;
52742;SDS011;55583;53.012;6.556;2023-07-13T04:05:46;19.67;;;4.60;;
52742;SDS011;55583;53.012;6.556;2023-07-13T04:08:12;11.80;;;4.47;;
52742;SDS011;55583;53.012;6.556;2023-07-13T04:10:38;19.77;;;4.47;;
52742;SDS011;55583;53.012;6.556;2023-07-13T04:13:04;16.70;;;5.03;;
52742;SDS011;55583;53.012;6.556;2023-07-13T04:15:30;16.45;;;4.00;;
52742;SDS011;55583;53.012;6.556;2023-07-13T04:17:56;19.83;;;4.63;;
52742;SDS011;55583;53.012;6.556;2023-07-13T04:20:22;18.65;;;4.00;;
52742;SDS011;55583;53.012;6.556;2023-07-13T04:22:49;16.08;;;4.75;;
52742;SDS011;55583;53.012;6.556;2023-07-13T04:25:15;19.75;;;5.65;;
52742;SDS011;55583;53.012;6.556;2023-07-13T04:27:41;23.75;;;4.88;;
52742;SDS011;55583;53.012;6.556;2023-07-13T04:30:06;16.08;;;5.05;;
52742;SDS011;55583;53.012;6.556;2023-07-13T04:32:33;16.27;;;4.05;;
52742;SDS011;55583;53.012;6.556;2023-07-13T04:34:58;14.75;;;3.75;;
52742;SDS011;55583;53.012;6.556;2023-07-13T04:37:27;16.30;;;4.57;;
52742;SDS011;55583;53.012;6.556;2023-07-13T04:39:53;18.50;;;4.18;;
52742;SDS011;55583;53.012;6.556;2023-07-13T04:42:19;18.30;;;4.75;;
52742;SDS011;55583;53.012;6.556;2023-07-13T04:44:48;18.42;;;4.30;;
52742;SDS011;55583;53.012;6.556;2023-07-13T04:47:15;18.35;;;4.78;;
52742;SDS011;55583;53.012;6.556;2023-07-13T04:49:40;12.25;;;4.32;;
52742;SDS011;55583;53.012;6.556;2023-07-13T04:52:06;21.35;;;5.32;;
52742;SDS011;55583;53.012;6.556;2023-07-13T04:54:35;20.58;;;4.78;;
52742;SDS011;55583;53.012;6.556;2023-07-13T04:57:02;17.33;;;5.05;;
52742;SDS011;55583;53.012;6.556;2023-07-13T04:59:31;15.50;;;4.35;;
52742;SDS011;55583;53.012;6.556;2023-07-13T05:01:57;12.00;;;4.10;;
52742;SDS011;55583;53.012;6.556;2023-07-13T05:04:23;14.23;;;4.53;;
52742;SDS011;55583;53.012;6.556;2023-07-13T05:06:49;23.40;;;5.72;;
52742;SDS011;55583;53.012;6.556;2023-07-13T05:09:15;17.65;;;4.95;;
52742;SDS011;55583;53.012;6.556;2023-07-13T05:11:41;15.55;;;4.25;;
52742;SDS011;55583;53.012;6.556;2023-07-13T05:14:08;13.45;;;4.13;;
52742;SDS011;55583;53.012;6.556;2023-07-13T05:16:34;17.98;;;5.03;;
52742;SDS011;55583;53.012;6.556;2023-07-13T05:19:00;17.77;;;4.45;;
52742;SDS011;55583;53.012;6.556;2023-07-13T05:21:26;12.98;;;4.30;;
52742;SDS011;55583;53.012;6.556;2023-07-13T05:23:52;15.57;;;4.57;;
52742;SDS011;55583;53.012;6.556;2023-07-13T05:26:18;12.35;;;4.80;;
52742;SDS011;55583;53.012;6.556;2023-07-13T05:28:45;14.55;;;4.43;;
52742;SDS011;55583;53.012;6.556;2023-07-13T05:31:11;16.20;;;4.68;;
52742;SDS011;55583;53.012;6.556;2023-07-13T05:33:37;19.00;;;5.00;;
52742;SDS011;55583;53.012;6.556;2023-07-13T05:36:03;13.57;;;4.22;;
52742;SDS011;55583;53.012;6.556;2023-07-13T05:38:29;21.80;;;5.50;;
52742;SDS011;55583;53.012;6.556;2023-07-13T05:40:55;19.70;;;4.80;;
52742;SDS011;55583;53.012;6.556;2023-07-13T05:43:22;18.40;;;4.20;;
52742;SDS011;55583;53.012;6.556;2023-07-13T05:45:48;16.42;;;4.25;;
52742;SDS011;55583;53.012;6.556;2023-07-13T05:48:15;18.27;;;4.55;;
52742;SDS011;55583;53.012;6.556;2023-07-13T05:50:40;18.15;;;4.13;;
52742;SDS011;55583;53.012;6.556;2023-07-13T05:53:06;14.85;;;4.95;;
52742;SDS011;55583;53.012;6.556;2023-07-13T05:55:32;16.40;;;4.32;;
52742;SDS011;55583;53.012;6.556;2023-07-13T05:57:59;9.77;;;3.75;;
52742;SDS011;55583;53.012;6.556;2023-07-13T06:00:25;13.77;;;4.00;;
52742;SDS011;55583;53.012;6.556;2023-07-13T06:02:51;13.60;;;3.70;;
52742;SDS011;55583;53.012;6.556;2023-07-13T06:05:17;14.25;;;3.60;;
52742;SDS011;55583;53.012;6.556;2023-07-13T06:07:43;10.32;;;3.63;;
52742;SDS011;55583;53.012;6.556;2023-07-13T06:10:09;12.00;;;3.45;;
52742;SDS011;55583;53.012;6.556;2023-07-13T06:12:35;10.13;;;3.50;;
52742;SDS011;55583;53.012;6.556;2023-07-13T06:15:01;13.40;;;3.78;;
52742;SDS011;55583;53.012;6.556;2023-07-13T06:17:27;11.73;;;3.35;;
52742;SDS011;55583;53.012;6.556;2023-07-13T06:19:53;14.95;;;4.15;;
52742;SDS011;55583;53.012;6.556;2023-07-13T06:22:18;12.63;;;3.08;;
52742;SDS011;55583;53.012;6.556;2023-07-13T06:24:44;12.05;;;3.63;;
52742;SDS011;55583;53.012;6.556;2023-07-13T06:27:10;7.25;;;2.70;;
52742;SDS011;55583;53.012;6.556;2023-07-13T06:29:35;11.50;;;3.50;;
52742;SDS011;55583;53.012;6.556;2023-07-13T06:32:01;11.70;;;3.17;;
52742;SDS011;55583;53.012;6.556;2023-07-13T06:34:27;13.38;;;3.33;;
52742;SDS011;55583;53.012;6.556;2023-07-13T06:36:52;18.38;;;4.35;;
52742;SDS011;55583;53.012;6.556;2023-07-13T06:39:18;12.35;;;3.25;;
52742;SDS011;55583;53.012;6.556;2023-07-13T06:41:44;11.38;;;3.15;;
52742;SDS011;55583;53.012;6.556;2023-07-13T06:44:10;9.55;;;2.97;;
52742;SDS011;55583;53.012;6.556;2023-07-13T06:46:35;10.15;;;3.30;;
52742;SDS011;55583;53.012;6.556;2023-07-13T06:49:01;9.80;;;2.67;;
52742;SDS011;55583;53.012;6.556;2023-07-13T06:51:27;7.82;;;2.88;;
52742;SDS011;55583;53.012;6.556;2023-07-13T06:53:52;13.90;;;3.13;;
52742;SDS011;55583;53.012;6.556;2023-07-13T06:56:19;11.07;;;3.70;;
52742;SDS011;55583;53.012;6.556;2023-07-13T06:58:45;13.95;;;3.28;;
52742;SDS011;55583;53.012;6.556;2023-07-13T07:01:10;11.35;;;3.72;;
52742;SDS011;55583;53.012;6.556;2023-07-13T07:03:36;9.57;;;3.33;;
52742;SDS011;55583;53.012;6.556;2023-07-13T07:06:12;11.95;;;2.65;;
52742;SDS011;55583;53.012;6.556;2023-07-13T07:08:46;6.78;;;2.60;;
52742;SDS011;55583;53.012;6.556;2023-07-13T07:11:13;19.98;;;3.60;;
52742;SDS011;55583;53.012;6.556;2023-07-13T07:13:41;10.05;;;2.95;;
52742;SDS011;55583;53.012;6.556;2023-07-13T07:16:07;10.48;;;2.67;;
52742;SDS011;55583;53.012;6.556;2023-07-13T07:18:34;14.23;;;2.97;;
52742;SDS011;55583;53.012;6.556;2023-07-13T07:21:00;11.20;;;2.97;;
52742;SDS011;55583;53.012;6.556;2023-07-13T07:23:25;10.93;;;2.58;;
52742;SDS011;55583;53.012;6.556;2023-07-13T07:25:51;11.40;;;2.83;;
52742;SDS011;55583;53.012;6.556;2023-07-13T07:28:17;6.97;;;2.35;;
52742;SDS011;55583;53.012;6.556;2023-07-13T07:30:43;9.55;;;3.00;;
52742;SDS011;55583;53.012;6.556;2023-07-13T07:33:13;12.82;;;2.88;;
52742;SDS011;55583;53.012;6.556;2023-07-13T07:35:38;10.40;;;2.92;;
52742;SDS011;55583;53.012;6.556;2023-07-13T07:38:04;16.35;;;2.92;;
52742;SDS011;55583;53.012;6.556;2023-07-13T07:40:30;12.20;;;2.67;;
52742;SDS011;55583;53.012;6.556;2023-07-13T07:42:57;12.15;;;3.15;;
52742;SDS011;55583;53.012;6.556;2023-07-13T07:45:22;12.23;;;2.40;;
52742;SDS011;55583;53.012;6.556;2023-07-13T07:47:48;12.15;;;3.03;;
52742;SDS011;55583;53.012;6.556;2023-07-13T07:50:15;14.45;;;3.20;;
52742;SDS011;55583;53.012;6.556;2023-07-13T07:52:41;9.63;;;2.85;;
52742;SDS011;55583;53.012;6.556;2023-07-13T07:55:08;12.48;;;3.10;;
52742;SDS011;55583;53.012;6.556;2023-07-13T07:57:33;12.73;;;3.17;;
52742;SDS011;55583;53.012;6.556;2023-07-13T08:00:00;11.30;;;3.35;;
52742;SDS011;55583;53.012;6.556;2023-07-13T08:02:26;8.32;;;2.95;;
52742;SDS011;55583;53.012;6.556;2023-07-13T08:04:51;12.52;;;3.05;;
52742;SDS011;55583;53.012;6.556;2023-07-13T08:07:17;9.88;;;3.17;;
52742;SDS011;55583;53.012;6.556;2023-07-13T08:09:43;13.27;;;3.25;;
52742;SDS011;55583;53.012;6.556;2023-07-13T08:12:09;7.78;;;2.90;;
52742;SDS011;55583;53.012;6.556;2023-07-13T08:14:35;7.95;;;2.90;;
52742;SDS011;55583;53.012;6.556;2023-07-13T08:17:00;9.27;;;2.90;;
52742;SDS011;55583;53.012;6.556;2023-07-13T08:19:26;11.90;;;2.90;;
52742;SDS011;55583;53.012;6.556;2023-07-13T08:21:52;14.20;;;3.33;;
52742;SDS011;55583;53.012;6.556;2023-07-13T08:24:17;8.15;;;2.97;;
52742;SDS011;55583;53.012;6.556;2023-07-13T08:26:44;12.10;;;3.83;;
52742;SDS011;55583;53.012;6.556;2023-07-13T08:29:11;12.73;;;3.65;;
52742;SDS011;55583;53.012;6.556;2023-07-13T08:31:37;14.73;;;3.53;;
52742;SDS011;55583;53.012;6.556;2023-07-13T08:34:02;15.43;;;3.88;;
52742;SDS011;55583;53.012;6.556;2023-07-13T08:36:28;12.40;;;4.05;;
52742;SDS011;55583;53.012;6.556;2023-07-13T08:38:55;14.05;;;4.03;;
52742;SDS011;55583;53.012;6.556;2023-07-13T08:41:21;13.57;;;4.38;;
52742;SDS011;55583;53.012;6.556;2023-07-13T08:43:51;13.68;;;4.65;;
52742;SDS011;55583;53.012;6.556;2023-07-13T08:51:31;11.98;;;3.72;;
52742;SDS011;55583;53.012;6.556;2023-07-13T08:54:22;9.90;;;3.72;;
52742;SDS011;55583;53.012;6.556;2023-07-13T08:56:55;11.25;;;3.63;;
52742;SDS011;55583;53.012;6.556;2023-07-13T08:59:24;9.05;;;3.08;;
52742;SDS011;55583;53.012;6.556;2023-07-13T09:04:50;6.93;;;3.60;;
52742;SDS011;55583;53.012;6.556;2023-07-13T09:07:44;12.13;;;3.50;;
52742;SDS011;55583;53.012;6.556;2023-07-13T09:10:32;5.43;;;3.60;;
52742;SDS011;55583;53.012;6.556;2023-07-13T09:13:09;12.15;;;5.32;;
52742;SDS011;55583;53.012;6.556;2023-07-13T09:15:53;8.05;;;4.75;;
52742;SDS011;55583;53.012;6.556;2023-07-13T09:20:52;10.25;;;4.25;;
52742;SDS011;55583;53.012;6.556;2023-07-13T09:23:37;9.80;;;4.30;;
52742;SDS011;55583;53.012;6.556;2023-07-13T09:26:11;10.93;;;4.57;;
52742;SDS011;55583;53.012;6.556;2023-07-13T09:28:44;7.38;;;3.88;;
52742;SDS011;55583;53.012;6.556;2023-07-13T09:31:16;10.52;;;3.90;;
52742;SDS011;55583;53.012;6.556;2023-07-13T09:34:09;6.28;;;3.60;;
52742;SDS011;55583;53.012;6.556;2023-07-13T09:36:36;10.88;;;3.85;;
52742;SDS011;55583;53.012;6.556;2023-07-13T09:39:03;10.68;;;3.88;;
52742;SDS011;55583;53.012;6.556;2023-07-13T09:41:33;6.25;;;4.15;;
52742;SDS011;55583;53.012;6.556;2023-07-13T09:44:15;13.70;;;4.70;;
52742;SDS011;55583;53.012;6.556;2023-07-13T09:46:52;11.63;;;4.32;;
52742;SDS011;55583;53.012;6.556;2023-07-13T09:49:26;9.88;;;4.72;;
52742;SDS011;55583;53.012;6.556;2023-07-13T09:52:01;9.88;;;3.90;;
52742;SDS011;55583;53.012;6.556;2023-07-13T09:54:35;7.10;;;3.13;;
52742;SDS011;55583;53.012;6.556;2023-07-13T09:57:03;4.97;;;3.30;;
52742;SDS011;55583;53.012;6.556;2023-07-13T09:59:40;5.70;;;2.70;;
52742;SDS011;55583;53.012;6.556;2023-07-13T10:02:24;6.25;;;2.45;;
52742;SDS011;55583;53.012;6.556;2023-07-13T10:04:56;7.65;;;2.95;;
52742;SDS011;55583;53.012;6.556;2023-07-13T10:07:24;4.70;;;2.67;;
52742;SDS011;55583;53.012;6.556;2023-07-13T10:09:54;4.03;;;2.50;;
52742;SDS011;55583;53.012;6.556;2023-07-13T10:12:21;5.47;;;2.20;;
52742;SDS011;55583;53.012;6.556;2023-07-13T10:14:50;8.93;;;3.30;;
52742;SDS011;55583;53.012;6.556;2023-07-13T10:17:20;7.65;;;2.90;;
52742;SDS011;55583;53.012;6.556;2023-07-13T10:19:56;8.30;;;3.50;;
52742;SDS011;55583;53.012;6.556;2023-07-13T10:25:17;7.25;;;3.42;;
52742;SDS011;55583;53.012;6.556;2023-07-13T10:30:19;10.50;;;5.45;;
52742;SDS011;55583;53.012;6.556;2023-07-13T10:32:50;14.80;;;5.75;;
52742;SDS011;55583;53.012;6.556;2023-07-13T10:35:18;19.17;;;6.53;;
52742;SDS011;55583;53.012;6.556;2023-07-13T10:37:54;153.50;;;19.02;;
52742;SDS011;55583;53.012;6.556;2023-07-13T10:40:27;47.20;;;11.80;;
52742;SDS011;55583;53.012;6.556;2023-07-13T10:43:28;21.73;;;8.40;;
52742;SDS011;55583;53.012;6.556;2023-07-13T10:45:55;22.38;;;9.63;;
52742;SDS011;55583;53.012;6.556;2023-07-13T10:48:22;18.63;;;6.93;;
52742;SDS011;55583;53.012;6.556;2023-07-13T10:50:49;12.70;;;4.95;;
52742;SDS011;55583;53.012;6.556;2023-07-13T10:58:22;6.40;;;3.22;;
52742;SDS011;55583;53.012;6.556;2023-07-13T11:03:33;5.65;;;2.67;;
52742;SDS011;55583;53.012;6.556;2023-07-13T11:06:05;4.50;;;2.30;;
52742;SDS011;55583;53.012;6.556;2023-07-13T11:08:35;4.68;;;2.17;;
52742;SDS011;55583;53.012;6.556;2023-07-13T11:11:03;6.15;;;2.17;;
52742;SDS011;55583;53.012;6.556;2023-07-13T11:21:18;4.32;;;1.60;;
52742;SDS011;55583;53.012;6.556;2023-07-13T11:24:42;4.30;;;1.70;;
52742;SDS011;55583;53.012;6.556;2023-07-13T11:26:50;2.65;;;1.45;;
52742;SDS011;55583;53.012;6.556;2023-07-13T11:31:43;4.68;;;1.70;;
52742;SDS011;55583;53.012;6.556;2023-07-13T11:34:53;5.47;;;1.55;;
52742;SDS011;55583;53.012;6.556;2023-07-13T11:37:12;6.38;;;2.15;;
52742;SDS011;55583;53.012;6.556;2023-07-13T11:39:42;3.92;;;1.40;;
52742;SDS011;55583;53.012;6.556;2023-07-13T11:42:15;3.58;;;1.45;;
52742;SDS011;55583;53.012;6.556;2023-07-13T11:44:44;3.90;;;1.37;;
52742;SDS011;55583;53.012;6.556;2023-07-13T11:47:17;3.28;;;1.83;;
52742;SDS011;55583;53.012;6.556;2023-07-13T11:49:50;3.20;;;1.35;;
52742;SDS011;55583;53.012;6.556;2023-07-13T11:52:21;7.75;;;1.60;;
52742;SDS011;55583;53.012;6.556;2023-07-13T11:54:54;4.95;;;1.33;;
52742;SDS011;55583;53.012;6.556;2023-07-13T11:57:28;3.35;;;1.38;;
52742;SDS011;55583;53.012;6.556;2023-07-13T11:59:59;4.72;;;1.73;;
52742;SDS011;55583;53.012;6.556;2023-07-13T12:02:33;3.60;;;1.25;;
52742;SDS011;55583;53.012;6.556;2023-07-13T12:05:03;4.90;;;1.80;;
52742;SDS011;55583;53.012;6.556;2023-07-13T12:07:31;3.65;;;1.60;;
52742;SDS011;55583;53.012;6.556;2023-07-13T12:10:13;6.60;;;1.77;;
52742;SDS011;55583;53.012;6.556;2023-07-13T12:18:02;4.35;;;1.60;;
52742;SDS011;55583;53.012;6.556;2023-07-13T12:20:37;2.85;;;1.30;;
52742;SDS011;55583;53.012;6.556;2023-07-13T12:25:54;6.22;;;1.40;;
52742;SDS011;55583;53.012;6.556;2023-07-13T12:28:32;7.15;;;1.90;;
52742;SDS011;55583;53.012;6.556;2023-07-13T12:31:01;5.07;;;1.17;;
52742;SDS011;55583;53.012;6.556;2023-07-13T12:33:29;5.30;;;1.70;;
52742;SDS011;55583;53.012;6.556;2023-07-13T12:35:57;4.20;;;1.48;;
52742;SDS011;55583;53.012;6.556;2023-07-13T12:38:25;5.70;;;1.50;;
52742;SDS011;55583;53.012;6.556;2023-07-13T12:40:51;4.45;;;1.77;;
52742;SDS011;55583;53.012;6.556;2023-07-13T12:43:19;3.08;;;1.45;;
52742;SDS011;55583;53.012;6.556;2023-07-13T12:46:01;3.80;;;1.30;;
52742;SDS011;55583;53.012;6.556;2023-07-13T12:48:28;4.40;;;1.33;;
52742;SDS011;55583;53.012;6.556;2023-07-13T12:50:55;4.13;;;1.30;;
52742;SDS011;55583;53.012;6.556;2023-07-13T12:53:28;4.60;;;1.60;;
52742;SDS011;55583;53.012;6.556;2023-07-13T12:55:59;4.50;;;1.65;;
52742;SDS011;55583;53.012;6.556;2023-07-13T12:58:32;4.78;;;1.48;;
52742;SDS011;55583;53.012;6.556;2023-07-13T13:01:02;2.22;;;1.10;;
52742;SDS011;55583;53.012;6.556;2023-07-13T13:03:34;8.52;;;1.60;;
52742;SDS011;55583;53.012;6.556;2023-07-13T13:06:06;7.63;;;1.60;;
52742;SDS011;55583;53.012;6.556;2023-07-13T13:08:45;4.35;;;1.25;;
52742;SDS011;55583;53.012;6.556;2023-07-13T13:11:14;4.72;;;1.17;;
52742;SDS011;55583;53.012;6.556;2023-07-13T13:13:41;4.72;;;1.38;;
52742;SDS011;55583;53.012;6.556;2023-07-13T13:18:41;4.03;;;1.00;;
52742;SDS011;55583;53.012;6.556;2023-07-13T13:21:08;3.03;;;1.30;;
52742;SDS011;55583;53.012;6.556;2023-07-13T13:23:35;4.78;;;1.42;;
52742;SDS011;55583;53.012;6.556;2023-07-13T13:26:00;6.97;;;1.50;;
52742;SDS011;55583;53.012;6.556;2023-07-13T13:28:27;6.47;;;1.52;;
52742;SDS011;55583;53.012;6.556;2023-07-13T13:30:54;4.80;;;1.70;;
52742;SDS011;55583;53.012;6.556;2023-07-13T13:33:20;5.22;;;1.55;;
52742;SDS011;55583;53.012;6.556;2023-07-13T13:35:47;6.05;;;1.45;;
52742;SDS011;55583;53.012;6.556;2023-07-13T13:38:22;4.82;;;1.30;;
52742;SDS011;55583;53.012;6.556;2023-07-13T13:40:51;5.30;;;1.27;;
52742;SDS011;55583;53.012;6.556;2023-07-13T13:43:24;3.10;;;1.20;;
52742;SDS011;55583;53.012;6.556;2023-07-13T13:45:52;3.35;;;1.38;;
52742;SDS011;55583;53.012;6.556;2023-07-13T13:48:25;2.92;;;1.23;;
52742;SDS011;55583;53.012;6.556;2023-07-13T13:50:57;3.60;;;1.67;;
52742;SDS011;55583;53.012;6.556;2023-07-13T13:53:24;3.28;;;1.17;;
52742;SDS011;55583;53.012;6.556;2023-07-13T13:55:50;4.70;;;1.42;;
52742;SDS011;55583;53.012;6.556;2023-07-13T13:58:18;3.38;;;1.30;;
52742;SDS011;55583;53.012;6.556;2023-07-13T14:00:44;7.05;;;1.17;;
52742;SDS011;55583;53.012;6.556;2023-07-13T14:03:15;8.02;;;1.42;;
52742;SDS011;55583;53.012;6.556;2023-07-13T14:05:43;3.47;;;1.33;;
52742;SDS011;55583;53.012;6.556;2023-07-13T14:08:13;4.05;;;1.48;;
52742;SDS011;55583;53.012;6.556;2023-07-13T14:10:40;7.07;;;1.65;;
52742;SDS011;55583;53.012;6.556;2023-07-13T14:13:07;2.50;;;1.08;;
52742;SDS011;55583;53.012;6.556;2023-07-13T14:15:42;2.38;;;1.13;;
52742;SDS011;55583;53.012;6.556;2023-07-13T14:18:08;2.20;;;1.13;;
52742;SDS011;55583;53.012;6.556;2023-07-13T14:20:34;3.22;;;1.15;;
52742;SDS011;55583;53.012;6.556;2023-07-13T14:23:00;1.25;;;1.08;;
52742;SDS011;55583;53.012;6.556;2023-07-13T14:25:25;3.75;;;1.23;;
52742;SDS011;55583;53.012;6.556;2023-07-13T14:27:53;5.45;;;1.17;;
52742;SDS011;55583;53.012;6.556;2023-07-13T14:30:22;5.40;;;1.55;;
52742;SDS011;55583;53.012;6.556;2023-07-13T14:32:48;5.70;;;1.60;;
52742;SDS011;55583;53.012;6.556;2023-07-13T14:35:21;6.10;;;1.85;;
52742;SDS011;55583;53.012;6.556;2023-07-13T14:37:48;2.08;;;1.38;;
52742;SDS011;55583;53.012;6.556;2023-07-13T14:40:15;5.75;;;1.90;;
52742;SDS011;55583;53.012;6.556;2023-07-13T14:42:42;4.65;;;1.40;;
52742;SDS011;55583;53.012;6.556;2023-07-13T14:45:15;6.13;;;1.60;;
52742;SDS011;55583;53.012;6.556;2023-07-13T14:47:42;4.15;;;1.38;;
52742;SDS011;55583;53.012;6.556;2023-07-13T14:52:51;10.52;;;1.95;;
52742;SDS011;55583;53.012;6.556;2023-07-13T14:55:18;2.88;;;0.98;;
52742;SDS011;55583;53.012;6.556;2023-07-13T14:57:44;4.03;;;1.60;;
52742;SDS011;55583;53.012;6.556;2023-07-13T15:00:17;3.92;;;1.40;;
52742;SDS011;55583;53.012;6.556;2023-07-13T15:02:49;5.57;;;2.25;;
52742;SDS011;55583;53.012;6.556;2023-07-13T15:05:22;4.40;;;1.50;;
52742;SDS011;55583;53.012;6.556;2023-07-13T15:07:50;4.38;;;1.58;;
52742;SDS011;55583;53.012;6.556;2023-07-13T15:10:22;4.38;;;1.50;;
52742;SDS011;55583;53.012;6.556;2023-07-13T15:12:56;2.65;;;1.13;;
52742;SDS011;55583;53.012;6.556;2023-07-13T15:15:29;3.92;;;1.20;;
52742;SDS011;55583;53.012;6.556;2023-07-13T15:17:58;3.75;;;1.35;;
52742;SDS011;55583;53.012;6.556;2023-07-13T15:20:29;3.88;;;1.50;;
52742;SDS011;55583;53.012;6.556;2023-07-13T15:22:57;5.50;;;1.60;;
52742;SDS011;55583;53.012;6.556;2023-07-13T15:25:25;5.53;;;1.85;;
52742;SDS011;55583;53.012;6.556;2023-07-13T15:27:53;5.80;;;1.70;;
52742;SDS011;55583;53.012;6.556;2023-07-13T15:30:20;4.80;;;1.90;;
52742;SDS011;55583;53.012;6.556;2023-07-13T15:32:47;3.35;;;1.52;;
52742;SDS011;55583;53.012;6.556;2023-07-13T15:35:14;9.10;;;2.08;;
52742;SDS011;55583;53.012;6.556;2023-07-13T15:37:45;6.43;;;1.90;;